Indianapolis International Airport
KIND : now visible

Airfield :











YOU CAN JOIN US ON...

 
LOGIN :

Register | Disclaimer

   EN    FR    IT 

 









Legend :    VFR   Marginal VFR   IFR   Intensive IFR   Very Intensive IFR
Visi :
Ceiling :
>= 8 km
>= 3000ft
5 to 8 km
1000 to 3000 ft
1500m to 5 km
500 to 1000 ft
800 to 1500m
200 to 500 ft
< 800m
< 200 ft
Symbols :   Thunderstorms  Fog  Heavy snow  Heavy precipitations  Wind > 20 kt






- Airport Elevation : 797 ft
- IATA code : IND


KIND - Indianapolis International

CURRENT METAR :
  • 072054Z 23017G22KT 10SM SCT055 SCT250 26/14 A2972 RMK AO2 SLP057 T02560139 56030

EXPIRED METARs :
  • 071954Z 25011KT 10SM SCT050 SCT250 24/14 A2974 RMK AO2 SLP068 T02440139
  • 071854Z 25012G21KT 10SM SCT050 BKN250 25/14 A2978 RMK AO2 SLP079 T02500144

TAF KIND
Valid from the 07 at 21:00 until the 09 at 00:00 UTC


072105Z 0721/0824 23015G21KT P6SM SCT050
FM080300 23010KT P6SM VCTS BKN050CB
FM080900 29008KT P6SM FEW008 OVC015
FM081400 34008KT P6SM SCT030
FM082100 24005KT P6SM SCT120



MET'MAP, your aeronautical weather chart ! - Copyright ORBIFLY December 2007 - Disclaimer

ORBIFLY MET'MAP TEAM :

Programming & Development : Alexandra Zaïnal
Concept & original design : Baudouin d'Aumeries
Assistance for programming : Marc-Olivier Méhu
Technical & hardware support : Manuel Goepfert

Contact : metmap@orbifly.com




SOURCES & CREDITS :

   NOAA       Earth
Advisory